sensor_id;sensor_type;location;lat;lon;timestamp;P1;durP1;ratioP1;P2;durP2;ratioP2
35188;SDS011;21762;54.480;18.556;2022-08-11T00:01:09;8.18;;;4.63;;
35188;SDS011;21762;54.480;18.556;2022-08-11T00:03:43;7.22;;;4.78;;
35188;SDS011;21762;54.480;18.556;2022-08-11T00:06:21;6.05;;;3.90;;
35188;SDS011;21762;54.480;18.556;2022-08-11T00:08:51;8.73;;;4.85;;
35188;SDS011;21762;54.480;18.556;2022-08-11T00:11:21;10.88;;;4.03;;
35188;SDS011;21762;54.480;18.556;2022-08-11T00:13:49;12.77;;;4.80;;
35188;SDS011;21762;54.480;18.556;2022-08-11T00:16:18;7.15;;;4.38;;
35188;SDS011;21762;54.480;18.556;2022-08-11T00:18:50;6.53;;;4.60;;
35188;SDS011;21762;54.480;18.556;2022-08-11T00:21:22;11.23;;;4.70;;
35188;SDS011;21762;54.480;18.556;2022-08-11T00:23:53;7.70;;;4.53;;
35188;SDS011;21762;54.480;18.556;2022-08-11T00:26:24;11.02;;;4.72;;
35188;SDS011;21762;54.480;18.556;2022-08-11T00:28:53;9.35;;;4.72;;
35188;SDS011;21762;54.480;18.556;2022-08-11T00:31:22;6.63;;;3.97;;
35188;SDS011;21762;54.480;18.556;2022-08-11T00:33:51;5.65;;;3.70;;
35188;SDS011;21762;54.480;18.556;2022-08-11T00:36:22;5.65;;;3.92;;
35188;SDS011;21762;54.480;18.556;2022-08-11T00:38:56;5.65;;;3.78;;
35188;SDS011;21762;54.480;18.556;2022-08-11T00:41:32;7.50;;;3.72;;
35188;SDS011;21762;54.480;18.556;2022-08-11T00:44:06;6.32;;;3.63;;
35188;SDS011;21762;54.480;18.556;2022-08-11T00:46:41;7.68;;;4.05;;
35188;SDS011;21762;54.480;18.556;2022-08-11T00:49:23;6.18;;;3.83;;
35188;SDS011;21762;54.480;18.556;2022-08-11T00:52:09;7.85;;;3.97;;
35188;SDS011;21762;54.480;18.556;2022-08-11T00:55:01;5.47;;;3.97;;
35188;SDS011;21762;54.480;18.556;2022-08-11T01:00:23;7.97;;;3.55;;
35188;SDS011;21762;54.480;18.556;2022-08-11T01:03:09;6.15;;;4.00;;
35188;SDS011;21762;54.480;18.556;2022-08-11T01:11:43;9.63;;;4.07;;
35188;SDS011;21762;54.480;18.556;2022-08-11T01:14:39;7.82;;;3.90;;
35188;SDS011;21762;54.480;18.556;2022-08-11T01:20:40;5.95;;;3.50;;
35188;SDS011;21762;54.480;18.556;2022-08-11T01:26:58;8.77;;;3.83;;
35188;SDS011;21762;54.480;18.556;2022-08-11T01:38:12;5.20;;;3.35;;
35188;SDS011;21762;54.480;18.556;2022-08-11T01:41:06;9.07;;;4.43;;
35188;SDS011;21762;54.480;18.556;2022-08-11T01:44:22;5.47;;;3.33;;
35188;SDS011;21762;54.480;18.556;2022-08-11T01:47:10;6.15;;;3.33;;
35188;SDS011;21762;54.480;18.556;2022-08-11T01:50:07;5.97;;;3.80;;
35188;SDS011;21762;54.480;18.556;2022-08-11T01:52:46;5.65;;;3.70;;
35188;SDS011;21762;54.480;18.556;2022-08-11T01:55:33;7.70;;;3.67;;
35188;SDS011;21762;54.480;18.556;2022-08-11T01:58:07;6.15;;;3.08;;
35188;SDS011;21762;54.480;18.556;2022-08-11T02:00:44;7.28;;;3.55;;
35188;SDS011;21762;54.480;18.556;2022-08-11T02:03:19;6.57;;;4.20;;
35188;SDS011;21762;54.480;18.556;2022-08-11T02:05:56;6.95;;;3.60;;
35188;SDS011;21762;54.480;18.556;2022-08-11T02:08:33;6.78;;;4.35;;
35188;SDS011;21762;54.480;18.556;2022-08-11T02:11:14;8.27;;;3.50;;
35188;SDS011;21762;54.480;18.556;2022-08-11T02:13:59;7.25;;;3.50;;
35188;SDS011;21762;54.480;18.556;2022-08-11T02:16:35;6.13;;;3.60;;
35188;SDS011;21762;54.480;18.556;2022-08-11T02:19:21;8.77;;;3.63;;
35188;SDS011;21762;54.480;18.556;2022-08-11T02:22:18;5.03;;;3.33;;
35188;SDS011;21762;54.480;18.556;2022-08-11T02:25:16;5.30;;;3.42;;
35188;SDS011;21762;54.480;18.556;2022-08-11T02:27:51;5.75;;;3.67;;
35188;SDS011;21762;54.480;18.556;2022-08-11T02:30:23;7.78;;;3.53;;
35188;SDS011;21762;54.480;18.556;2022-08-11T02:32:54;6.63;;;3.38;;
35188;SDS011;21762;54.480;18.556;2022-08-11T02:35:45;6.70;;;3.50;;
35188;SDS011;21762;54.480;18.556;2022-08-11T02:38:20;6.65;;;3.25;;
35188;SDS011;21762;54.480;18.556;2022-08-11T02:40:59;7.05;;;3.65;;
35188;SDS011;21762;54.480;18.556;2022-08-11T02:43:34;8.32;;;4.07;;
35188;SDS011;21762;54.480;18.556;2022-08-11T02:46:20;4.43;;;3.17;;
35188;SDS011;21762;54.480;18.556;2022-08-11T02:48:58;7.25;;;3.65;;
35188;SDS011;21762;54.480;18.556;2022-08-11T02:51:49;5.57;;;3.35;;
35188;SDS011;21762;54.480;18.556;2022-08-11T02:54:25;5.43;;;3.45;;
35188;SDS011;21762;54.480;18.556;2022-08-11T02:57:00;6.25;;;3.55;;
35188;SDS011;21762;54.480;18.556;2022-08-11T02:59:42;4.45;;;3.08;;
35188;SDS011;21762;54.480;18.556;2022-08-11T03:02:20;6.57;;;3.38;;
35188;SDS011;21762;54.480;18.556;2022-08-11T03:05:02;10.38;;;3.20;;
35188;SDS011;21762;54.480;18.556;2022-08-11T03:07:40;6.03;;;3.50;;
35188;SDS011;21762;54.480;18.556;2022-08-11T03:10:22;5.70;;;3.30;;
35188;SDS011;21762;54.480;18.556;2022-08-11T03:12:56;6.57;;;3.88;;
35188;SDS011;21762;54.480;18.556;2022-08-11T03:15:51;7.22;;;3.65;;
35188;SDS011;21762;54.480;18.556;2022-08-11T03:18:49;5.70;;;3.30;;
35188;SDS011;21762;54.480;18.556;2022-08-11T03:21:25;7.32;;;3.60;;
35188;SDS011;21762;54.480;18.556;2022-08-11T03:23:58;6.03;;;3.63;;
35188;SDS011;21762;54.480;18.556;2022-08-11T03:26:30;6.78;;;3.72;;
35188;SDS011;21762;54.480;18.556;2022-08-11T03:29:07;12.85;;;4.32;;
35188;SDS011;21762;54.480;18.556;2022-08-11T03:31:43;8.35;;;3.70;;
35188;SDS011;21762;54.480;18.556;2022-08-11T03:34:16;6.82;;;3.92;;
35188;SDS011;21762;54.480;18.556;2022-08-11T03:40:03;4.93;;;3.13;;
35188;SDS011;21762;54.480;18.556;2022-08-11T03:42:41;6.03;;;3.53;;
35188;SDS011;21762;54.480;18.556;2022-08-11T03:45:19;6.40;;;3.47;;
35188;SDS011;21762;54.480;18.556;2022-08-11T03:48:01;9.18;;;3.42;;
35188;SDS011;21762;54.480;18.556;2022-08-11T03:53:43;7.97;;;3.53;;
35188;SDS011;21762;54.480;18.556;2022-08-11T03:56:21;6.00;;;3.70;;
35188;SDS011;21762;54.480;18.556;2022-08-11T04:02:24;6.35;;;3.80;;
35188;SDS011;21762;54.480;18.556;2022-08-11T04:08:34;6.20;;;3.35;;
35188;SDS011;21762;54.480;18.556;2022-08-11T04:14:25;5.07;;;3.22;;
35188;SDS011;21762;54.480;18.556;2022-08-11T04:20:28;6.57;;;4.38;;
35188;SDS011;21762;54.480;18.556;2022-08-11T04:23:22;8.23;;;3.30;;
35188;SDS011;21762;54.480;18.556;2022-08-11T04:29:02;4.20;;;2.75;;
35188;SDS011;21762;54.480;18.556;2022-08-11T04:31:41;6.03;;;3.10;;
35188;SDS011;21762;54.480;18.556;2022-08-11T04:37:11;4.50;;;3.20;;
35188;SDS011;21762;54.480;18.556;2022-08-11T04:40:07;6.65;;;3.03;;
35188;SDS011;21762;54.480;18.556;2022-08-11T04:42:57;5.82;;;2.95;;
35188;SDS011;21762;54.480;18.556;2022-08-11T04:55:14;7.22;;;3.10;;
35188;SDS011;21762;54.480;18.556;2022-08-11T05:00:59;5.40;;;2.83;;
35188;SDS011;21762;54.480;18.556;2022-08-11T05:04:10;6.38;;;3.38;;
35188;SDS011;21762;54.480;18.556;2022-08-11T05:07:15;5.28;;;3.28;;
35188;SDS011;21762;54.480;18.556;2022-08-11T05:10:11;6.90;;;3.10;;
35188;SDS011;21762;54.480;18.556;2022-08-11T05:12:47;10.35;;;2.97;;
35188;SDS011;21762;54.480;18.556;2022-08-11T05:15:17;6.18;;;3.00;;
35188;SDS011;21762;54.480;18.556;2022-08-11T05:18:07;8.60;;;3.05;;
35188;SDS011;21762;54.480;18.556;2022-08-11T05:21:03;6.65;;;2.90;;
35188;SDS011;21762;54.480;18.556;2022-08-11T05:23:53;4.75;;;2.83;;
35188;SDS011;21762;54.480;18.556;2022-08-11T05:26:44;6.78;;;2.95;;
35188;SDS011;21762;54.480;18.556;2022-08-11T05:29:40;5.93;;;3.33;;
35188;SDS011;21762;54.480;18.556;2022-08-11T05:32:32;5.18;;;2.55;;
35188;SDS011;21762;54.480;18.556;2022-08-11T05:35:36;5.57;;;3.20;;
35188;SDS011;21762;54.480;18.556;2022-08-11T05:38:08;12.70;;;4.68;;
35188;SDS011;21762;54.480;18.556;2022-08-11T05:40:58;9.23;;;3.28;;
35188;SDS011;21762;54.480;18.556;2022-08-11T05:43:44;6.38;;;2.97;;
35188;SDS011;21762;54.480;18.556;2022-08-11T05:46:37;7.45;;;2.90;;
35188;SDS011;21762;54.480;18.556;2022-08-11T05:49:23;6.93;;;2.60;;
35188;SDS011;21762;54.480;18.556;2022-08-11T05:52:14;9.82;;;3.17;;
35188;SDS011;21762;54.480;18.556;2022-08-11T05:55:01;4.47;;;2.95;;
35188;SDS011;21762;54.480;18.556;2022-08-11T05:57:48;5.45;;;2.70;;
35188;SDS011;21762;54.480;18.556;2022-08-11T06:00:21;7.88;;;2.67;;
35188;SDS011;21762;54.480;18.556;2022-08-11T06:02:51;5.70;;;3.47;;
35188;SDS011;21762;54.480;18.556;2022-08-11T06:05:24;10.70;;;3.75;;
35188;SDS011;21762;54.480;18.556;2022-08-11T06:08:01;6.95;;;3.05;;
35188;SDS011;21762;54.480;18.556;2022-08-11T06:10:30;7.65;;;3.30;;
35188;SDS011;21762;54.480;18.556;2022-08-11T06:13:00;5.57;;;3.63;;
35188;SDS011;21762;54.480;18.556;2022-08-11T06:15:29;6.10;;;3.30;;
35188;SDS011;21762;54.480;18.556;2022-08-11T06:17:58;10.82;;;4.00;;
35188;SDS011;21762;54.480;18.556;2022-08-11T06:20:28;6.53;;;4.30;;
35188;SDS011;21762;54.480;18.556;2022-08-11T06:23:04;12.65;;;5.47;;
35188;SDS011;21762;54.480;18.556;2022-08-11T06:25:35;7.95;;;4.50;;
35188;SDS011;21762;54.480;18.556;2022-08-11T06:28:05;10.25;;;4.65;;
35188;SDS011;21762;54.480;18.556;2022-08-11T06:30:35;10.35;;;4.22;;
35188;SDS011;21762;54.480;18.556;2022-08-11T06:33:08;7.43;;;3.70;;
35188;SDS011;21762;54.480;18.556;2022-08-11T06:35:43;8.50;;;3.67;;
35188;SDS011;21762;54.480;18.556;2022-08-11T06:38:18;6.93;;;3.20;;
35188;SDS011;21762;54.480;18.556;2022-08-11T06:40:55;4.97;;;2.50;;
35188;SDS011;21762;54.480;18.556;2022-08-11T06:43:44;5.72;;;3.25;;
35188;SDS011;21762;54.480;18.556;2022-08-11T06:46:16;4.70;;;2.88;;
35188;SDS011;21762;54.480;18.556;2022-08-11T06:48:49;18.02;;;3.17;;
35188;SDS011;21762;54.480;18.556;2022-08-11T06:51:20;6.55;;;3.28;;
35188;SDS011;21762;54.480;18.556;2022-08-11T06:53:50;4.60;;;2.80;;
35188;SDS011;21762;54.480;18.556;2022-08-11T06:56:24;5.93;;;2.67;;
35188;SDS011;21762;54.480;18.556;2022-08-11T06:59:11;5.95;;;2.75;;
35188;SDS011;21762;54.480;18.556;2022-08-11T07:01:56;7.63;;;2.75;;
35188;SDS011;21762;54.480;18.556;2022-08-11T07:04:30;21.30;;;3.65;;
35188;SDS011;21762;54.480;18.556;2022-08-11T07:07:08;6.22;;;2.70;;
35188;SDS011;21762;54.480;18.556;2022-08-11T07:10:26;3.64;;;1.86;;
35188;SDS011;21762;54.480;18.556;2022-08-11T07:13:20;2.40;;;2.17;;
35188;SDS011;21762;54.480;18.556;2022-08-11T07:16:07;4.82;;;2.08;;
35188;SDS011;21762;54.480;18.556;2022-08-11T07:21:27;6.97;;;3.25;;
35188;SDS011;21762;54.480;18.556;2022-08-11T07:24:16;13.30;;;3.88;;
35188;SDS011;21762;54.480;18.556;2022-08-11T07:27:05;4.95;;;2.85;;
35188;SDS011;21762;54.480;18.556;2022-08-11T07:29:55;7.00;;;3.40;;
35188;SDS011;21762;54.480;18.556;2022-08-11T07:32:24;6.25;;;3.10;;
35188;SDS011;21762;54.480;18.556;2022-08-11T07:34:56;9.88;;;3.33;;
35188;SDS011;21762;54.480;18.556;2022-08-11T07:37:28;6.47;;;3.40;;
35188;SDS011;21762;54.480;18.556;2022-08-11T07:39:58;4.75;;;3.25;;
35188;SDS011;21762;54.480;18.556;2022-08-11T07:42:31;6.82;;;3.40;;
35188;SDS011;21762;54.480;18.556;2022-08-11T07:45:03;7.30;;;3.17;;
35188;SDS011;21762;54.480;18.556;2022-08-11T07:47:50;9.13;;;3.38;;
35188;SDS011;21762;54.480;18.556;2022-08-11T07:50:39;6.20;;;2.75;;
35188;SDS011;21762;54.480;18.556;2022-08-11T07:53:25;3.75;;;2.72;;
35188;SDS011;21762;54.480;18.556;2022-08-11T07:55:54;8.93;;;2.92;;
35188;SDS011;21762;54.480;18.556;2022-08-11T07:58:26;7.10;;;3.42;;
35188;SDS011;21762;54.480;18.556;2022-08-11T08:01:16;4.07;;;2.47;;
35188;SDS011;21762;54.480;18.556;2022-08-11T08:04:03;8.35;;;3.00;;
35188;SDS011;21762;54.480;18.556;2022-08-11T08:06:50;6.80;;;3.63;;
35188;SDS011;21762;54.480;18.556;2022-08-11T08:09:37;6.40;;;2.35;;
35188;SDS011;21762;54.480;18.556;2022-08-11T08:12:23;4.53;;;2.15;;
35188;SDS011;21762;54.480;18.556;2022-08-11T08:15:12;4.53;;;2.70;;
35188;SDS011;21762;54.480;18.556;2022-08-11T08:18:02;5.18;;;2.53;;
35188;SDS011;21762;54.480;18.556;2022-08-11T08:20:33;8.70;;;2.70;;
35188;SDS011;21762;54.480;18.556;2022-08-11T08:23:04;5.00;;;2.53;;
35188;SDS011;21762;54.480;18.556;2022-08-11T08:25:33;5.97;;;2.80;;
35188;SDS011;21762;54.480;18.556;2022-08-11T08:28:04;3.87;;;2.77;;
35188;SDS011;21762;54.480;18.556;2022-08-11T08:30:41;5.95;;;2.65;;
35188;SDS011;21762;54.480;18.556;2022-08-11T08:33:18;6.82;;;2.42;;
35188;SDS011;21762;54.480;18.556;2022-08-11T08:35:48;5.78;;;2.75;;
35188;SDS011;21762;54.480;18.556;2022-08-11T08:38:38;3.85;;;2.35;;
35188;SDS011;21762;54.480;18.556;2022-08-11T08:41:07;2.70;;;2.13;;
35188;SDS011;21762;54.480;18.556;2022-08-11T08:43:35;7.55;;;2.83;;
35188;SDS011;21762;54.480;18.556;2022-08-11T08:46:06;6.45;;;3.00;;
35188;SDS011;21762;54.480;18.556;2022-08-11T08:48:36;5.10;;;2.47;;
35188;SDS011;21762;54.480;18.556;2022-08-11T08:51:06;9.80;;;2.45;;
35188;SDS011;21762;54.480;18.556;2022-08-11T08:53:55;5.20;;;2.30;;
35188;SDS011;21762;54.480;18.556;2022-08-11T08:56:28;4.47;;;2.30;;
35188;SDS011;21762;54.480;18.556;2022-08-11T08:59:00;4.40;;;2.63;;
35188;SDS011;21762;54.480;18.556;2022-08-11T09:01:30;7.97;;;2.13;;
35188;SDS011;21762;54.480;18.556;2022-08-11T09:04:04;7.50;;;2.42;;
35188;SDS011;21762;54.480;18.556;2022-08-11T09:06:37;5.28;;;2.40;;
35188;SDS011;21762;54.480;18.556;2022-08-11T09:09:08;2.60;;;2.15;;
35188;SDS011;21762;54.480;18.556;2022-08-11T09:11:38;5.30;;;2.53;;
35188;SDS011;21762;54.480;18.556;2022-08-11T09:14:23;5.18;;;2.13;;
35188;SDS011;21762;54.480;18.556;2022-08-11T09:17:13;4.22;;;2.15;;
35188;SDS011;21762;54.480;18.556;2022-08-11T09:19:43;4.20;;;2.22;;
35188;SDS011;21762;54.480;18.556;2022-08-11T09:22:11;7.43;;;3.30;;
35188;SDS011;21762;54.480;18.556;2022-08-11T09:25:02;3.45;;;2.33;;
35188;SDS011;21762;54.480;18.556;2022-08-11T09:27:49;4.78;;;2.40;;
35188;SDS011;21762;54.480;18.556;2022-08-11T09:30:18;3.83;;;2.60;;
35188;SDS011;21762;54.480;18.556;2022-08-11T09:32:48;6.10;;;2.80;;
35188;SDS011;21762;54.480;18.556;2022-08-11T09:35:26;3.50;;;2.45;;
35188;SDS011;21762;54.480;18.556;2022-08-11T09:37:55;3.60;;;2.33;;
35188;SDS011;21762;54.480;18.556;2022-08-11T09:40:41;3.40;;;2.08;;
35188;SDS011;21762;54.480;18.556;2022-08-11T09:43:12;4.32;;;2.17;;
35188;SDS011;21762;54.480;18.556;2022-08-11T09:46:01;3.33;;;2.13;;
35188;SDS011;21762;54.480;18.556;2022-08-11T09:48:36;4.13;;;2.35;;
35188;SDS011;21762;54.480;18.556;2022-08-11T09:51:06;3.97;;;2.10;;
35188;SDS011;21762;54.480;18.556;2022-08-11T09:53:36;6.07;;;1.60;;
35188;SDS011;21762;54.480;18.556;2022-08-11T09:56:06;4.03;;;2.40;;
35188;SDS011;21762;54.480;18.556;2022-08-11T09:58:55;2.20;;;2.00;;
35188;SDS011;21762;54.480;18.556;2022-08-11T10:01:25;3.15;;;2.22;;
35188;SDS011;21762;54.480;18.556;2022-08-11T10:03:59;9.00;;;2.22;;
35188;SDS011;21762;54.480;18.556;2022-08-11T10:06:30;5.88;;;2.25;;
35188;SDS011;21762;54.480;18.556;2022-08-11T10:09:17;5.50;;;2.17;;
35188;SDS011;21762;54.480;18.556;2022-08-11T10:11:46;4.25;;;1.98;;
35188;SDS011;21762;54.480;18.556;2022-08-11T10:14:15;9.52;;;2.47;;
35188;SDS011;21762;54.480;18.556;2022-08-11T10:17:03;4.97;;;2.15;;
35188;SDS011;21762;54.480;18.556;2022-08-11T10:19:35;2.83;;;2.15;;
35188;SDS011;21762;54.480;18.556;2022-08-11T10:22:05;7.75;;;2.85;;
35188;SDS011;21762;54.480;18.556;2022-08-11T10:24:51;4.95;;;2.25;;
35188;SDS011;21762;54.480;18.556;2022-08-11T10:27:38;6.32;;;2.95;;
35188;SDS011;21762;54.480;18.556;2022-08-11T10:30:06;2.72;;;1.83;;
35188;SDS011;21762;54.480;18.556;2022-08-11T10:32:52;4.07;;;2.55;;
35188;SDS011;21762;54.480;18.556;2022-08-11T10:35:39;2.88;;;1.80;;
35188;SDS011;21762;54.480;18.556;2022-08-11T10:38:09;6.57;;;1.83;;
35188;SDS011;21762;54.480;18.556;2022-08-11T10:40:40;3.42;;;1.70;;
35188;SDS011;21762;54.480;18.556;2022-08-11T10:43:13;3.10;;;1.63;;
35188;SDS011;21762;54.480;18.556;2022-08-11T10:45:41;2.42;;;2.10;;
35188;SDS011;21762;54.480;18.556;2022-08-11T10:48:44;3.80;;;2.00;;
35188;SDS011;21762;54.480;18.556;2022-08-11T10:51:14;2.47;;;1.92;;
35188;SDS011;21762;54.480;18.556;2022-08-11T10:53:45;2.63;;;1.60;;
35188;SDS011;21762;54.480;18.556;2022-08-11T10:56:34;2.47;;;1.73;;
35188;SDS011;21762;54.480;18.556;2022-08-11T10:59:25;4.70;;;2.55;;
35188;SDS011;21762;54.480;18.556;2022-08-11T11:01:55;4.32;;;2.22;;
35188;SDS011;21762;54.480;18.556;2022-08-11T11:04:27;5.05;;;1.85;;
35188;SDS011;21762;54.480;18.556;2022-08-11T11:07:06;4.30;;;1.90;;
35188;SDS011;21762;54.480;18.556;2022-08-11T11:09:41;3.63;;;1.67;;
35188;SDS011;21762;54.480;18.556;2022-08-11T11:12:12;7.90;;;1.92;;
35188;SDS011;21762;54.480;18.556;2022-08-11T11:15:00;6.93;;;1.90;;
35188;SDS011;21762;54.480;18.556;2022-08-11T11:17:51;3.50;;;1.80;;
35188;SDS011;21762;54.480;18.556;2022-08-11T11:22:59;2.40;;;1.25;;
35188;SDS011;21762;54.480;18.556;2022-08-11T11:25:34;3.67;;;1.60;;
35188;SDS011;21762;54.480;18.556;2022-08-11T11:28:35;3.87;;;1.77;;
35188;SDS011;21762;54.480;18.556;2022-08-11T11:31:35;2.33;;;1.52;;
35188;SDS011;21762;54.480;18.556;2022-08-11T11:36:54;2.28;;;1.60;;
35188;SDS011;21762;54.480;18.556;2022-08-11T11:39:25;2.85;;;1.35;;
35188;SDS011;21762;54.480;18.556;2022-08-11T11:41:55;4.68;;;1.35;;
35188;SDS011;21762;54.480;18.556;2022-08-11T11:44:27;2.97;;;1.38;;
35188;SDS011;21762;54.480;18.556;2022-08-11T11:46:57;3.92;;;1.20;;
35188;SDS011;21762;54.480;18.556;2022-08-11T11:49:27;2.55;;;1.30;;
35188;SDS011;21762;54.480;18.556;2022-08-11T11:51:59;2.17;;;1.05;;
35188;SDS011;21762;54.480;18.556;2022-08-11T11:54:30;3.00;;;1.20;;
35188;SDS011;21762;54.480;18.556;2022-08-11T11:57:03;3.08;;;1.35;;
35188;SDS011;21762;54.480;18.556;2022-08-11T11:59:47;4.25;;;1.20;;
35188;SDS011;21762;54.480;18.556;2022-08-11T12:02:37;1.65;;;0.85;;
35188;SDS011;21762;54.480;18.556;2022-08-11T12:05:07;3.65;;;1.20;;
35188;SDS011;21762;54.480;18.556;2022-08-11T12:07:36;1.27;;;1.17;;
35188;SDS011;21762;54.480;18.556;2022-08-11T12:10:24;1.63;;;1.00;;
35188;SDS011;21762;54.480;18.556;2022-08-11T12:12:54;2.92;;;0.73;;
35188;SDS011;21762;54.480;18.556;2022-08-11T12:15:44;1.52;;;1.10;;
35188;SDS011;21762;54.480;18.556;2022-08-11T12:18:13;4.15;;;0.68;;
35188;SDS011;21762;54.480;18.556;2022-08-11T12:20:47;1.33;;;0.95;;
35188;SDS011;21762;54.480;18.556;2022-08-11T12:23:17;3.17;;;1.05;;
35188;SDS011;21762;54.480;18.556;2022-08-11T12:26:05;1.27;;;0.65;;
35188;SDS011;21762;54.480;18.556;2022-08-11T12:28:53;3.83;;;0.70;;
35188;SDS011;21762;54.480;18.556;2022-08-11T12:31:25;1.85;;;0.80;;
35188;SDS011;21762;54.480;18.556;2022-08-11T12:34:00;2.10;;;1.10;;
35188;SDS011;21762;54.480;18.556;2022-08-11T12:36:32;0.85;;;0.80;;
35188;SDS011;21762;54.480;18.556;2022-08-11T12:39:04;2.42;;;0.60;;
35188;SDS011;21762;54.480;18.556;2022-08-11T12:41:41;0.80;;;0.77;;
35188;SDS011;21762;54.480;18.556;2022-08-11T12:44:39;2.92;;;0.80;;
35188;SDS011;21762;54.480;18.556;2022-08-11T12:47:25;1.33;;;1.00;;
35188;SDS011;21762;54.480;18.556;2022-08-11T12:50:14;2.28;;;0.90;;
35188;SDS011;21762;54.480;18.556;2022-08-11T12:53:04;3.15;;;1.20;;
35188;SDS011;21762;54.480;18.556;2022-08-11T12:55:38;0.88;;;0.80;;
35188;SDS011;21762;54.480;18.556;2022-08-11T12:58:28;1.10;;;0.73;;
35188;SDS011;21762;54.480;18.556;2022-08-11T13:01:03;2.65;;;1.00;;
35188;SDS011;21762;54.480;18.556;2022-08-11T13:03:49;1.00;;;0.70;;
35188;SDS011;21762;54.480;18.556;2022-08-11T13:06:40;1.75;;;1.00;;
35188;SDS011;21762;54.480;18.556;2022-08-11T13:09:08;5.10;;;1.45;;
35188;SDS011;21762;54.480;18.556;2022-08-11T13:11:38;1.42;;;0.82;;
35188;SDS011;21762;54.480;18.556;2022-08-11T13:14:26;4.45;;;1.45;;
35188;SDS011;21762;54.480;18.556;2022-08-11T13:16:54;3.30;;;0.70;;
35188;SDS011;21762;54.480;18.556;2022-08-11T13:19:40;1.80;;;0.90;;
35188;SDS011;21762;54.480;18.556;2022-08-11T13:22:14;3.00;;;1.00;;
35188;SDS011;21762;54.480;18.556;2022-08-11T13:24:43;2.78;;;1.10;;
35188;SDS011;21762;54.480;18.556;2022-08-11T13:27:12;1.50;;;0.80;;
35188;SDS011;21762;54.480;18.556;2022-08-11T13:29:44;10.18;;;1.15;;
35188;SDS011;21762;54.480;18.556;2022-08-11T13:32:14;1.20;;;0.90;;
35188;SDS011;21762;54.480;18.556;2022-08-11T13:34:47;5.35;;;0.80;;
35188;SDS011;21762;54.480;18.556;2022-08-11T13:37:18;1.80;;;0.70;;
35188;SDS011;21762;54.480;18.556;2022-08-11T13:39:47;0.90;;;0.65;;
35188;SDS011;21762;54.480;18.556;2022-08-11T13:42:16;2.67;;;0.95;;
35188;SDS011;21762;54.480;18.556;2022-08-11T13:44:48;2.97;;;0.90;;
35188;SDS011;21762;54.480;18.556;2022-08-11T13:47:18;1.63;;;0.90;;
35188;SDS011;21762;54.480;18.556;2022-08-11T13:49:49;0.70;;;0.63;;
35188;SDS011;21762;54.480;18.556;2022-08-11T13:52:18;1.58;;;1.00;;
35188;SDS011;21762;54.480;18.556;2022-08-11T13:54:46;1.08;;;0.77;;
35188;SDS011;21762;54.480;18.556;2022-08-11T13:57:16;1.67;;;0.93;;
35188;SDS011;21762;54.480;18.556;2022-08-11T13:59:52;0.65;;;0.65;;
35188;SDS011;21762;54.480;18.556;2022-08-11T14:02:39;0.85;;;0.77;;
35188;SDS011;21762;54.480;18.556;2022-08-11T14:05:11;0.93;;;0.57;;
35188;SDS011;21762;54.480;18.556;2022-08-11T14:07:44;2.05;;;1.08;;
35188;SDS011;21762;54.480;18.556;2022-08-11T14:10:16;1.58;;;0.80;;
35188;SDS011;21762;54.480;18.556;2022-08-11T14:12:46;0.93;;;0.60;;
35188;SDS011;21762;54.480;18.556;2022-08-11T14:15:40;1.60;;;0.60;;
35188;SDS011;21762;54.480;18.556;2022-08-11T14:18:10;1.60;;;0.80;;
35188;SDS011;21762;54.480;18.556;2022-08-11T14:20:43;4.45;;;1.05;;
35188;SDS011;21762;54.480;18.556;2022-08-11T14:23:34;1.60;;;0.90;;
35188;SDS011;21762;54.480;18.556;2022-08-11T14:26:06;2.42;;;0.70;;
35188;SDS011;21762;54.480;18.556;2022-08-11T14:28:53;0.80;;;0.60;;
35188;SDS011;21762;54.480;18.556;2022-08-11T14:31:24;0.73;;;0.73;;
35188;SDS011;21762;54.480;18.556;2022-08-11T14:33:54;1.80;;;1.02;;
35188;SDS011;21762;54.480;18.556;2022-08-11T14:36:29;0.68;;;0.68;;
35188;SDS011;21762;54.480;18.556;2022-08-11T14:39:00;2.83;;;0.95;;
35188;SDS011;21762;54.480;18.556;2022-08-11T14:41:29;1.02;;;0.77;;
35188;SDS011;21762;54.480;18.556;2022-08-11T14:44:17;1.02;;;0.98;;
35188;SDS011;21762;54.480;18.556;2022-08-11T14:47:09;1.05;;;0.80;;
35188;SDS011;21762;54.480;18.556;2022-08-11T14:49:41;1.23;;;0.80;;
35188;SDS011;21762;54.480;18.556;2022-08-11T14:52:10;1.77;;;0.90;;
35188;SDS011;21762;54.480;18.556;2022-08-11T14:57:28;1.00;;;0.93;;
35188;SDS011;21762;54.480;18.556;2022-08-11T15:00:03;2.80;;;1.42;;
35188;SDS011;21762;54.480;18.556;2022-08-11T15:02:35;1.37;;;1.10;;
35188;SDS011;21762;54.480;18.556;2022-08-11T15:05:24;1.92;;;1.23;;
35188;SDS011;21762;54.480;18.556;2022-08-11T15:07:54;1.85;;;1.10;;
35188;SDS011;21762;54.480;18.556;2022-08-11T15:10:23;1.67;;;1.00;;
35188;SDS011;21762;54.480;18.556;2022-08-11T15:12:52;2.17;;;0.90;;
35188;SDS011;21762;54.480;18.556;2022-08-11T15:15:21;1.77;;;0.95;;
35188;SDS011;21762;54.480;18.556;2022-08-11T15:18:09;3.88;;;1.10;;
35188;SDS011;21762;54.480;18.556;2022-08-11T15:20:39;1.83;;;0.88;;
35188;SDS011;21762;54.480;18.556;2022-08-11T15:23:26;2.45;;;1.05;;
35188;SDS011;21762;54.480;18.556;2022-08-11T15:26:14;2.28;;;1.10;;
35188;SDS011;21762;54.480;18.556;2022-08-11T15:28:45;1.77;;;0.93;;
35188;SDS011;21762;54.480;18.556;2022-08-11T15:31:33;1.30;;;1.00;;
35188;SDS011;21762;54.480;18.556;2022-08-11T15:34:24;1.10;;;1.00;;
35188;SDS011;21762;54.480;18.556;2022-08-11T15:37:14;5.38;;;1.08;;
35188;SDS011;21762;54.480;18.556;2022-08-11T15:39:55;2.22;;;0.98;;
35188;SDS011;21762;54.480;18.556;2022-08-11T15:42:48;2.30;;;0.98;;
35188;SDS011;21762;54.480;18.556;2022-08-11T15:45:36;1.52;;;1.02;;
35188;SDS011;21762;54.480;18.556;2022-08-11T15:48:18;2.78;;;1.10;;
35188;SDS011;21762;54.480;18.556;2022-08-11T15:50:53;1.98;;;1.23;;
35188;SDS011;21762;54.480;18.556;2022-08-11T15:53:26;2.15;;;1.20;;
35188;SDS011;21762;54.480;18.556;2022-08-11T15:55:59;3.95;;;1.00;;
35188;SDS011;21762;54.480;18.556;2022-08-11T15:58:31;2.83;;;0.95;;
35188;SDS011;21762;54.480;18.556;2022-08-11T16:01:19;3.45;;;1.30;;
35188;SDS011;21762;54.480;18.556;2022-08-11T16:04:08;2.05;;;1.00;;
35188;SDS011;21762;54.480;18.556;2022-08-11T16:06:48;2.40;;;1.10;;
35188;SDS011;21762;54.480;18.556;2022-08-11T16:09:26;1.75;;;1.48;;
35188;SDS011;21762;54.480;18.556;2022-08-11T16:11:58;2.72;;;1.00;;
35188;SDS011;21762;54.480;18.556;2022-08-11T16:14:30;0.77;;;0.73;;
35188;SDS011;21762;54.480;18.556;2022-08-11T16:17:18;2.05;;;1.10;;
35188;SDS011;21762;54.480;18.556;2022-08-11T16:19:52;1.85;;;0.85;;
35188;SDS011;21762;54.480;18.556;2022-08-11T16:22:24;1.67;;;1.00;;
35188;SDS011;21762;54.480;18.556;2022-08-11T16:25:06;1.05;;;0.73;;
35188;SDS011;21762;54.480;18.556;2022-08-11T16:27:37;4.20;;;1.17;;
35188;SDS011;21762;54.480;18.556;2022-08-11T16:30:08;3.03;;;1.47;;
35188;SDS011;21762;54.480;18.556;2022-08-11T16:32:38;3.08;;;0.90;;
35188;SDS011;21762;54.480;18.556;2022-08-11T16:35:14;2.15;;;1.15;;
35188;SDS011;21762;54.480;18.556;2022-08-11T16:38:02;1.45;;;0.90;;
35188;SDS011;21762;54.480;18.556;2022-08-11T16:40:50;0.95;;;0.90;;
35188;SDS011;21762;54.480;18.556;2022-08-11T16:43:21;3.05;;;1.02;;
35188;SDS011;21762;54.480;18.556;2022-08-11T16:46:10;1.10;;;0.80;;
35188;SDS011;21762;54.480;18.556;2022-08-11T16:49:02;1.30;;;0.85;;
35188;SDS011;21762;54.480;18.556;2022-08-11T16:51:39;1.25;;;1.00;;
35188;SDS011;21762;54.480;18.556;2022-08-11T16:54:14;2.88;;;1.05;;